<?xml version="1.0" encoding="UTF-8" standalone="no" ?>
<gpx xmlns="http://www.topografix.com/GPX/1/1" xmlns:xsi="http://www.w3.org/2001/XMLSchema-instance" xsi:schemaLocation="http://www.topografix.com/GPX/1/1 http://www.topografix.com/GPX/1/1/gpx.xsd" version="1.1" creator="VisuGPX - https://www.visugpx.com">
  <metadata>
    <name>Venise-Pamir J84 - Tadjikistan</name>
    <desc><![CDATA[vers Khorog...                   ]]></desc>
  </metadata>
  <trk>
    <name><![CDATA[Venise-Pamir J84 - Tadjikistan_1]]></name>
    <trkseg>
      <trkpt lat="37.85199" lon="71.59023">
        <ele>1809.9</ele>
        <time>2018-08-24T02:52:06.000Z</time>
      </trkpt>
      <trkpt lat="37.8488" lon="71.58728">
        <ele>1991.4</ele>
        <time>2018-08-24T02:53:07.000Z</time>
      </trkpt>
      <trkpt lat="37.8467" lon="71.58675">
        <ele>1988.1</ele>
        <time>2018-08-24T02:54:08.000Z</time>
      </trkpt>
      <trkpt lat="37.84546" lon="71.58602">
        <ele>1994.1</ele>
        <time>2018-08-24T02:55:19.000Z</time>
      </trkpt>
      <trkpt lat="37.84398" lon="71.58566">
        <ele>1997.6</ele>
        <time>2018-08-24T02:56:20.000Z</time>
      </trkpt>
      <trkpt lat="37.84267" lon="71.58632">
        <ele>1998.8</ele>
        <time>2018-08-24T02:57:20.000Z</time>
      </trkpt>
      <trkpt lat="37.84146" lon="71.58711">
        <ele>2002.9</ele>
        <time>2018-08-24T02:58:38.000Z</time>
      </trkpt>
      <trkpt lat="37.83983" lon="71.5876">
        <ele>2003.2</ele>
        <time>2018-08-24T02:59:39.000Z</time>
      </trkpt>
      <trkpt lat="37.83743" lon="71.58807">
        <ele>2002.4</ele>
        <time>2018-08-24T03:00:40.000Z</time>
      </trkpt>
      <trkpt lat="37.83496" lon="71.58899">
        <ele>1999.8</ele>
        <time>2018-08-24T03:01:41.000Z</time>
      </trkpt>
      <trkpt lat="37.83252" lon="71.58898">
        <ele>2002.6</ele>
        <time>2018-08-24T03:02:42.000Z</time>
      </trkpt>
      <trkpt lat="37.83078" lon="71.58887">
        <ele>2001.1</ele>
        <time>2018-08-24T03:03:43.000Z</time>
      </trkpt>
      <trkpt lat="37.82889" lon="71.59017">
        <ele>2001.6</ele>
        <time>2018-08-24T03:04:43.000Z</time>
      </trkpt>
      <trkpt lat="37.82734" lon="71.59069">
        <ele>2001.6</ele>
        <time>2018-08-24T03:05:44.000Z</time>
      </trkpt>
      <trkpt lat="37.82532" lon="71.59005">
        <ele>2003.7</ele>
        <time>2018-08-24T03:06:45.000Z</time>
      </trkpt>
      <trkpt lat="37.82333" lon="71.59019">
        <ele>2004.8</ele>
        <time>2018-08-24T03:07:46.000Z</time>
      </trkpt>
      <trkpt lat="37.82204" lon="71.59183">
        <ele>2006</ele>
        <time>2018-08-24T03:08:46.000Z</time>
      </trkpt>
      <trkpt lat="37.82041" lon="71.59233">
        <ele>2006.1</ele>
        <time>2018-08-24T03:09:47.000Z</time>
      </trkpt>
      <trkpt lat="37.81876" lon="71.59361">
        <ele>2007.8</ele>
        <time>2018-08-24T03:10:47.000Z</time>
      </trkpt>
      <trkpt lat="37.81626" lon="71.59495">
        <ele>2006.7</ele>
        <time>2018-08-24T03:11:48.000Z</time>
      </trkpt>
      <trkpt lat="37.81392" lon="71.59482">
        <ele>1999.5</ele>
        <time>2018-08-24T03:12:49.000Z</time>
      </trkpt>
      <trkpt lat="37.81198" lon="71.59522">
        <ele>1995</ele>
        <time>2018-08-24T03:13:50.000Z</time>
      </trkpt>
      <trkpt lat="37.81033" lon="71.5968">
        <ele>1995.1</ele>
        <time>2018-08-24T03:14:51.000Z</time>
      </trkpt>
      <trkpt lat="37.80844" lon="71.59691">
        <ele>1996.7</ele>
        <time>2018-08-24T03:15:51.000Z</time>
      </trkpt>
      <trkpt lat="37.80651" lon="71.59756">
        <ele>1999.8</ele>
        <time>2018-08-24T03:16:52.000Z</time>
      </trkpt>
      <trkpt lat="37.8039" lon="71.59667">
        <ele>1994</ele>
        <time>2018-08-24T03:17:53.000Z</time>
      </trkpt>
      <trkpt lat="37.80226" lon="71.59571">
        <ele>1988.6</ele>
        <time>2018-08-24T03:18:53.000Z</time>
      </trkpt>
      <trkpt lat="37.80067" lon="71.59487">
        <ele>1990.9</ele>
        <time>2018-08-24T03:19:54.000Z</time>
      </trkpt>
      <trkpt lat="37.79793" lon="71.59337">
        <ele>1994.4</ele>
        <time>2018-08-24T03:20:55.000Z</time>
      </trkpt>
      <trkpt lat="37.79621" lon="71.59125">
        <ele>1998.5</ele>
        <time>2018-08-24T03:21:56.000Z</time>
      </trkpt>
      <trkpt lat="37.79445" lon="71.58911">
        <ele>2003.9</ele>
        <time>2018-08-24T03:22:57.000Z</time>
      </trkpt>
      <trkpt lat="37.79447" lon="71.586">
        <ele>2002.8</ele>
        <time>2018-08-24T03:23:58.000Z</time>
      </trkpt>
      <trkpt lat="37.79404" lon="71.58433">
        <ele>2000</ele>
        <time>2018-08-24T03:24:59.000Z</time>
      </trkpt>
      <trkpt lat="37.79299" lon="71.5822">
        <ele>1995.5</ele>
        <time>2018-08-24T03:25:59.000Z</time>
      </trkpt>
      <trkpt lat="37.79304" lon="71.57935">
        <ele>1996.4</ele>
        <time>2018-08-24T03:27:00.000Z</time>
      </trkpt>
      <trkpt lat="37.79257" lon="71.57754">
        <ele>1997.1</ele>
        <time>2018-08-24T03:28:01.000Z</time>
      </trkpt>
      <trkpt lat="37.79191" lon="71.57584">
        <ele>1996.8</ele>
        <time>2018-08-24T03:29:02.000Z</time>
      </trkpt>
      <trkpt lat="37.79047" lon="71.57441">
        <ele>1994.1</ele>
        <time>2018-08-24T03:30:03.000Z</time>
      </trkpt>
      <trkpt lat="37.78879" lon="71.57404">
        <ele>1991.4</ele>
        <time>2018-08-24T03:31:04.000Z</time>
      </trkpt>
      <trkpt lat="37.78766" lon="71.57189">
        <ele>1984.3</ele>
        <time>2018-08-24T03:32:05.000Z</time>
      </trkpt>
      <trkpt lat="37.78746" lon="71.56976">
        <ele>1990.4</ele>
        <time>2018-08-24T03:33:06.000Z</time>
      </trkpt>
      <trkpt lat="37.78709" lon="71.56764">
        <ele>1988.1</ele>
        <time>2018-08-24T03:34:07.000Z</time>
      </trkpt>
      <trkpt lat="37.78656" lon="71.56429">
        <ele>1983.2</ele>
        <time>2018-08-24T03:35:08.000Z</time>
      </trkpt>
      <trkpt lat="37.78599" lon="71.56135">
        <ele>1983</ele>
        <time>2018-08-24T03:36:09.000Z</time>
      </trkpt>
      <trkpt lat="37.78565" lon="71.55905">
        <ele>1987.9</ele>
        <time>2018-08-24T03:37:09.000Z</time>
      </trkpt>
      <trkpt lat="37.7854" lon="71.55736">
        <ele>2004</ele>
        <time>2018-08-24T03:41:33.000Z</time>
      </trkpt>
      <trkpt lat="37.78484" lon="71.55579">
        <ele>2005.8</ele>
        <time>2018-08-24T03:42:34.000Z</time>
      </trkpt>
      <trkpt lat="37.78266" lon="71.5537">
        <ele>2005</ele>
        <time>2018-08-24T03:43:34.000Z</time>
      </trkpt>
      <trkpt lat="37.78162" lon="71.55173">
        <ele>2002.6</ele>
        <time>2018-08-24T03:44:35.000Z</time>
      </trkpt>
      <trkpt lat="37.78056" lon="71.55065">
        <ele>2002.2</ele>
        <time>2018-08-24T03:45:40.000Z</time>
      </trkpt>
      <trkpt lat="37.7792" lon="71.55036">
        <ele>2005.6</ele>
        <time>2018-08-24T03:46:41.000Z</time>
      </trkpt>
      <trkpt lat="37.77785" lon="71.55057">
        <ele>2012.5</ele>
        <time>2018-08-24T03:47:43.000Z</time>
      </trkpt>
      <trkpt lat="37.77645" lon="71.5499">
        <ele>2016.4</ele>
        <time>2018-08-24T03:48:44.000Z</time>
      </trkpt>
      <trkpt lat="37.7753" lon="71.54889">
        <ele>2018.1</ele>
        <time>2018-08-24T03:49:45.000Z</time>
      </trkpt>
      <trkpt lat="37.7743" lon="71.54774">
        <ele>2022.1</ele>
        <time>2018-08-24T03:50:55.000Z</time>
      </trkpt>
      <trkpt lat="37.77318" lon="71.54676">
        <ele>2026.7</ele>
        <time>2018-08-24T03:52:04.000Z</time>
      </trkpt>
      <trkpt lat="37.77195" lon="71.54594">
        <ele>2026</ele>
        <time>2018-08-24T03:55:02.000Z</time>
      </trkpt>
      <trkpt lat="37.7702" lon="71.54438">
        <ele>2022</ele>
        <time>2018-08-24T03:56:03.000Z</time>
      </trkpt>
      <trkpt lat="37.76935" lon="71.54304">
        <ele>2021.8</ele>
        <time>2018-08-24T03:57:10.000Z</time>
      </trkpt>
      <trkpt lat="37.76863" lon="71.54141">
        <ele>2025.5</ele>
        <time>2018-08-24T03:58:11.000Z</time>
      </trkpt>
      <trkpt lat="37.76802" lon="71.53951">
        <ele>2035</ele>
        <time>2018-08-24T03:59:12.000Z</time>
      </trkpt>
      <trkpt lat="37.76739" lon="71.53727">
        <ele>2042.6</ele>
        <time>2018-08-24T04:00:12.000Z</time>
      </trkpt>
      <trkpt lat="37.76672" lon="71.53515">
        <ele>2053.1</ele>
        <time>2018-08-24T04:01:13.000Z</time>
      </trkpt>
      <trkpt lat="37.76595" lon="71.53375">
        <ele>2056.1</ele>
        <time>2018-08-24T04:02:42.000Z</time>
      </trkpt>
      <trkpt lat="37.76424" lon="71.5334">
        <ele>2046.5</ele>
        <time>2018-08-24T04:03:43.000Z</time>
      </trkpt>
      <trkpt lat="37.76163" lon="71.53366">
        <ele>2039.3</ele>
        <time>2018-08-24T04:04:44.000Z</time>
      </trkpt>
      <trkpt lat="37.76037" lon="71.53434">
        <ele>2040.1</ele>
        <time>2018-08-24T04:06:16.000Z</time>
      </trkpt>
      <trkpt lat="37.75893" lon="71.53574">
        <ele>2044.2</ele>
        <time>2018-08-24T04:07:17.000Z</time>
      </trkpt>
      <trkpt lat="37.75781" lon="71.5367">
        <ele>2055.2</ele>
        <time>2018-08-24T04:08:23.000Z</time>
      </trkpt>
      <trkpt lat="37.75592" lon="71.538">
        <ele>2054.2</ele>
        <time>2018-08-24T04:09:24.000Z</time>
      </trkpt>
      <trkpt lat="37.75437" lon="71.53896">
        <ele>2052.4</ele>
        <time>2018-08-24T04:10:24.000Z</time>
      </trkpt>
      <trkpt lat="37.7529" lon="71.54033">
        <ele>2059</ele>
        <time>2018-08-24T04:11:25.000Z</time>
      </trkpt>
      <trkpt lat="37.75191" lon="71.54149">
        <ele>2063.8</ele>
        <time>2018-08-24T04:12:28.000Z</time>
      </trkpt>
      <trkpt lat="37.7504" lon="71.54289">
        <ele>2074.4</ele>
        <time>2018-08-24T04:13:29.000Z</time>
      </trkpt>
      <trkpt lat="37.74881" lon="71.54454">
        <ele>2077.8</ele>
        <time>2018-08-24T04:14:30.000Z</time>
      </trkpt>
      <trkpt lat="37.74754" lon="71.54521">
        <ele>2080</ele>
        <time>2018-08-24T04:15:35.000Z</time>
      </trkpt>
      <trkpt lat="37.74527" lon="71.54717">
        <ele>2078.7</ele>
        <time>2018-08-24T04:16:36.000Z</time>
      </trkpt>
      <trkpt lat="37.74253" lon="71.54885">
        <ele>2054.6</ele>
        <time>2018-08-24T04:17:37.000Z</time>
      </trkpt>
      <trkpt lat="37.74124" lon="71.54938">
        <ele>2047.1</ele>
        <time>2018-08-24T04:18:40.000Z</time>
      </trkpt>
      <trkpt lat="37.73975" lon="71.55002">
        <ele>2050.2</ele>
        <time>2018-08-24T04:19:41.000Z</time>
      </trkpt>
      <trkpt lat="37.73856" lon="71.55148">
        <ele>2049.5</ele>
        <time>2018-08-24T04:20:42.000Z</time>
      </trkpt>
      <trkpt lat="37.737" lon="71.55308">
        <ele>2051.4</ele>
        <time>2018-08-24T04:21:43.000Z</time>
      </trkpt>
      <trkpt lat="37.73515" lon="71.55284">
        <ele>2053.2</ele>
        <time>2018-08-24T04:22:44.000Z</time>
      </trkpt>
      <trkpt lat="37.73378" lon="71.55305">
        <ele>2049.3</ele>
        <time>2018-08-24T04:29:18.000Z</time>
      </trkpt>
      <trkpt lat="37.73223" lon="71.55303">
        <ele>2056.9</ele>
        <time>2018-08-24T04:30:19.000Z</time>
      </trkpt>
      <trkpt lat="37.73043" lon="71.55303">
        <ele>2062.9</ele>
        <time>2018-08-24T04:31:19.000Z</time>
      </trkpt>
      <trkpt lat="37.72908" lon="71.5528">
        <ele>2064.6</ele>
        <time>2018-08-24T04:32:22.000Z</time>
      </trkpt>
      <trkpt lat="37.72773" lon="71.55289">
        <ele>2063.2</ele>
        <time>2018-08-24T04:33:38.000Z</time>
      </trkpt>
      <trkpt lat="37.72528" lon="71.55284">
        <ele>2062.2</ele>
        <time>2018-08-24T04:34:38.000Z</time>
      </trkpt>
      <trkpt lat="37.72394" lon="71.55309">
        <ele>2065.5</ele>
        <time>2018-08-24T04:36:30.000Z</time>
      </trkpt>
      <trkpt lat="37.7226" lon="71.55291">
        <ele>2077</ele>
        <time>2018-08-24T04:44:08.000Z</time>
      </trkpt>
      <trkpt lat="37.72123" lon="71.55248">
        <ele>2079.1</ele>
        <time>2018-08-24T04:45:09.000Z</time>
      </trkpt>
      <trkpt lat="37.71945" lon="71.5529">
        <ele>2084.4</ele>
        <time>2018-08-24T04:46:09.000Z</time>
      </trkpt>
      <trkpt lat="37.71567" lon="71.55355">
        <ele>2070</ele>
        <time>2018-08-24T04:47:10.000Z</time>
      </trkpt>
      <trkpt lat="37.71274" lon="71.55323">
        <ele>2059.2</ele>
        <time>2018-08-24T04:48:11.000Z</time>
      </trkpt>
      <trkpt lat="37.71014" lon="71.55249">
        <ele>2046.7</ele>
        <time>2018-08-24T04:49:12.000Z</time>
      </trkpt>
      <trkpt lat="37.70891" lon="71.55176">
        <ele>2037.2</ele>
        <time>2018-08-24T04:50:49.000Z</time>
      </trkpt>
      <trkpt lat="37.70713" lon="71.55038">
        <ele>2041</ele>
        <time>2018-08-24T04:51:50.000Z</time>
      </trkpt>
      <trkpt lat="37.70553" lon="71.549">
        <ele>2045.2</ele>
        <time>2018-08-24T04:52:51.000Z</time>
      </trkpt>
      <trkpt lat="37.70364" lon="71.54788">
        <ele>2050</ele>
        <time>2018-08-24T04:53:52.000Z</time>
      </trkpt>
      <trkpt lat="37.70231" lon="71.54824">
        <ele>2060.2</ele>
        <time>2018-08-24T04:54:53.000Z</time>
      </trkpt>
      <trkpt lat="37.70009" lon="71.54843">
        <ele>2067.1</ele>
        <time>2018-08-24T04:55:54.000Z</time>
      </trkpt>
      <trkpt lat="37.69906" lon="71.54733">
        <ele>2071.8</ele>
        <time>2018-08-24T04:57:10.000Z</time>
      </trkpt>
      <trkpt lat="37.69789" lon="71.54643">
        <ele>2071.1</ele>
        <time>2018-08-24T04:58:15.000Z</time>
      </trkpt>
      <trkpt lat="37.69666" lon="71.54567">
        <ele>2073.4</ele>
        <time>2018-08-24T04:59:16.000Z</time>
      </trkpt>
      <trkpt lat="37.6952" lon="71.54532">
        <ele>2075.2</ele>
        <time>2018-08-24T05:00:17.000Z</time>
      </trkpt>
      <trkpt lat="37.69308" lon="71.5449">
        <ele>2079.9</ele>
        <time>2018-08-24T05:01:18.000Z</time>
      </trkpt>
      <trkpt lat="37.69058" lon="71.54492">
        <ele>2077.4</ele>
        <time>2018-08-24T05:02:19.000Z</time>
      </trkpt>
      <trkpt lat="37.68587" lon="71.54473">
        <ele>2068.5</ele>
        <time>2018-08-24T05:03:20.000Z</time>
      </trkpt>
      <trkpt lat="37.68373" lon="71.54316">
        <ele>2066.9</ele>
        <time>2018-08-24T05:04:20.000Z</time>
      </trkpt>
      <trkpt lat="37.68189" lon="71.54112">
        <ele>2071</ele>
        <time>2018-08-24T05:05:21.000Z</time>
      </trkpt>
      <trkpt lat="37.68109" lon="71.53934">
        <ele>2077.4</ele>
        <time>2018-08-24T05:06:21.000Z</time>
      </trkpt>
      <trkpt lat="37.67986" lon="71.53776">
        <ele>2082.5</ele>
        <time>2018-08-24T05:07:22.000Z</time>
      </trkpt>
      <trkpt lat="37.67772" lon="71.53498">
        <ele>2069.3</ele>
        <time>2018-08-24T05:08:22.000Z</time>
      </trkpt>
      <trkpt lat="37.67528" lon="71.53253">
        <ele>2067.2</ele>
        <time>2018-08-24T05:09:23.000Z</time>
      </trkpt>
      <trkpt lat="37.67303" lon="71.53131">
        <ele>2064.8</ele>
        <time>2018-08-24T05:10:24.000Z</time>
      </trkpt>
      <trkpt lat="37.67051" lon="71.53104">
        <ele>2064.2</ele>
        <time>2018-08-24T05:11:25.000Z</time>
      </trkpt>
      <trkpt lat="37.66826" lon="71.53123">
        <ele>2067.4</ele>
        <time>2018-08-24T05:12:25.000Z</time>
      </trkpt>
      <trkpt lat="37.66577" lon="71.53139">
        <ele>2076.5</ele>
        <time>2018-08-24T05:13:26.000Z</time>
      </trkpt>
      <trkpt lat="37.66379" lon="71.5314">
        <ele>2077.2</ele>
        <time>2018-08-24T05:14:26.000Z</time>
      </trkpt>
      <trkpt lat="37.6622" lon="71.53171">
        <ele>2083.1</ele>
        <time>2018-08-24T05:15:27.000Z</time>
      </trkpt>
      <trkpt lat="37.66086" lon="71.532">
        <ele>2095</ele>
        <time>2018-08-24T05:17:13.000Z</time>
      </trkpt>
      <trkpt lat="37.65954" lon="71.53161">
        <ele>2095.8</ele>
        <time>2018-08-24T05:18:49.000Z</time>
      </trkpt>
      <trkpt lat="37.65818" lon="71.53163">
        <ele>2093.5</ele>
        <time>2018-08-24T05:20:03.000Z</time>
      </trkpt>
      <trkpt lat="37.65624" lon="71.53248">
        <ele>2095.9</ele>
        <time>2018-08-24T05:21:04.000Z</time>
      </trkpt>
      <trkpt lat="37.6523" lon="71.5342">
        <ele>2092.9</ele>
        <time>2018-08-24T05:22:05.000Z</time>
      </trkpt>
      <trkpt lat="37.64955" lon="71.53256">
        <ele>2093.5</ele>
        <time>2018-08-24T05:23:06.000Z</time>
      </trkpt>
      <trkpt lat="37.64623" lon="71.53122">
        <ele>2090.6</ele>
        <time>2018-08-24T05:24:06.000Z</time>
      </trkpt>
      <trkpt lat="37.64512" lon="71.53025">
        <ele>2084.3</ele>
        <time>2018-08-24T05:25:22.000Z</time>
      </trkpt>
      <trkpt lat="37.64361" lon="71.53001">
        <ele>2075.6</ele>
        <time>2018-08-24T05:26:23.000Z</time>
      </trkpt>
      <trkpt lat="37.6426" lon="71.52884">
        <ele>2073.8</ele>
        <time>2018-08-24T05:28:49.000Z</time>
      </trkpt>
      <trkpt lat="37.63928" lon="71.52934">
        <ele>2069.8</ele>
        <time>2018-08-24T05:29:50.000Z</time>
      </trkpt>
      <trkpt lat="37.63696" lon="71.52944">
        <ele>2069.9</ele>
        <time>2018-08-24T05:30:50.000Z</time>
      </trkpt>
      <trkpt lat="37.63458" lon="71.52816">
        <ele>2065.9</ele>
        <time>2018-08-24T05:31:51.000Z</time>
      </trkpt>
      <trkpt lat="37.63212" lon="71.527">
        <ele>2060.8</ele>
        <time>2018-08-24T05:32:52.000Z</time>
      </trkpt>
      <trkpt lat="37.6295" lon="71.52584">
        <ele>2058.7</ele>
        <time>2018-08-24T05:33:52.000Z</time>
      </trkpt>
      <trkpt lat="37.62699" lon="71.52383">
        <ele>2060.7</ele>
        <time>2018-08-24T05:34:53.000Z</time>
      </trkpt>
      <trkpt lat="37.62451" lon="71.52242">
        <ele>2063.8</ele>
        <time>2018-08-24T05:35:54.000Z</time>
      </trkpt>
      <trkpt lat="37.62124" lon="71.52112">
        <ele>2064.8</ele>
        <time>2018-08-24T05:36:55.000Z</time>
      </trkpt>
      <trkpt lat="37.61922" lon="71.51961">
        <ele>2069.1</ele>
        <time>2018-08-24T05:37:56.000Z</time>
      </trkpt>
      <trkpt lat="37.61715" lon="71.51854">
        <ele>2067.5</ele>
        <time>2018-08-24T05:38:56.000Z</time>
      </trkpt>
      <trkpt lat="37.61416" lon="71.51886">
        <ele>2063.7</ele>
        <time>2018-08-24T05:39:57.000Z</time>
      </trkpt>
      <trkpt lat="37.61169" lon="71.51829">
        <ele>2062.6</ele>
        <time>2018-08-24T05:40:58.000Z</time>
      </trkpt>
      <trkpt lat="37.60957" lon="71.51754">
        <ele>2064.6</ele>
        <time>2018-08-24T05:41:59.000Z</time>
      </trkpt>
      <trkpt lat="37.60803" lon="71.51655">
        <ele>2066.1</ele>
        <time>2018-08-24T05:43:00.000Z</time>
      </trkpt>
      <trkpt lat="37.60677" lon="71.51593">
        <ele>2070.9</ele>
        <time>2018-08-24T05:44:15.000Z</time>
      </trkpt>
      <trkpt lat="37.60548" lon="71.5154">
        <ele>2086.5</ele>
        <time>2018-08-24T05:46:06.000Z</time>
      </trkpt>
      <trkpt lat="37.60417" lon="71.51496">
        <ele>2094.3</ele>
        <time>2018-08-24T05:47:35.000Z</time>
      </trkpt>
      <trkpt lat="37.60293" lon="71.51426">
        <ele>2102.7</ele>
        <time>2018-08-24T05:49:14.000Z</time>
      </trkpt>
      <trkpt lat="37.60155" lon="71.51428">
        <ele>2118</ele>
        <time>2018-08-24T05:52:17.000Z</time>
      </trkpt>
      <trkpt lat="37.59844" lon="71.51298">
        <ele>2110.3</ele>
        <time>2018-08-24T05:53:18.000Z</time>
      </trkpt>
      <trkpt lat="37.59594" lon="71.51249">
        <ele>2106.4</ele>
        <time>2018-08-24T05:54:19.000Z</time>
      </trkpt>
      <trkpt lat="37.59447" lon="71.51211">
        <ele>2102.8</ele>
        <time>2018-08-24T05:55:20.000Z</time>
      </trkpt>
      <trkpt lat="37.59162" lon="71.51176">
        <ele>2097.6</ele>
        <time>2018-08-24T05:56:21.000Z</time>
      </trkpt>
      <trkpt lat="37.58772" lon="71.51154">
        <ele>2094.1</ele>
        <time>2018-08-24T05:57:22.000Z</time>
      </trkpt>
      <trkpt lat="37.58549" lon="71.51109">
        <ele>2094.6</ele>
        <time>2018-08-24T05:58:23.000Z</time>
      </trkpt>
      <trkpt lat="37.58293" lon="71.51086">
        <ele>2088.8</ele>
        <time>2018-08-24T05:59:24.000Z</time>
      </trkpt>
      <trkpt lat="37.57945" lon="71.51055">
        <ele>2082.9</ele>
        <time>2018-08-24T06:00:25.000Z</time>
      </trkpt>
      <trkpt lat="37.57637" lon="71.51026">
        <ele>2079</ele>
        <time>2018-08-24T06:01:26.000Z</time>
      </trkpt>
      <trkpt lat="37.57351" lon="71.50993">
        <ele>2077.6</ele>
        <time>2018-08-24T06:02:27.000Z</time>
      </trkpt>
      <trkpt lat="37.57104" lon="71.50958">
        <ele>2079.5</ele>
        <time>2018-08-24T06:03:28.000Z</time>
      </trkpt>
      <trkpt lat="37.56901" lon="71.50922">
        <ele>2080.7</ele>
        <time>2018-08-24T06:04:29.000Z</time>
      </trkpt>
      <trkpt lat="37.56775" lon="71.50861">
        <ele>2084.9</ele>
        <time>2018-08-24T06:05:30.000Z</time>
      </trkpt>
      <trkpt lat="37.56604" lon="71.50798">
        <ele>2087.4</ele>
        <time>2018-08-24T06:06:31.000Z</time>
      </trkpt>
      <trkpt lat="37.56149" lon="71.50928">
        <ele>2088.6</ele>
        <time>2018-08-24T06:07:32.000Z</time>
      </trkpt>
      <trkpt lat="37.55781" lon="71.50898">
        <ele>2086.6</ele>
        <time>2018-08-24T06:08:32.000Z</time>
      </trkpt>
      <trkpt lat="37.55484" lon="71.50928">
        <ele>2083.9</ele>
        <time>2018-08-24T06:09:33.000Z</time>
      </trkpt>
      <trkpt lat="37.55322" lon="71.5088">
        <ele>2085.4</ele>
        <time>2018-08-24T06:10:34.000Z</time>
      </trkpt>
      <trkpt lat="37.55112" lon="71.50779">
        <ele>2088.1</ele>
        <time>2018-08-24T06:11:35.000Z</time>
      </trkpt>
      <trkpt lat="37.54783" lon="71.50631">
        <ele>2090.5</ele>
        <time>2018-08-24T06:12:36.000Z</time>
      </trkpt>
      <trkpt lat="37.54439" lon="71.50678">
        <ele>2092.8</ele>
        <time>2018-08-24T06:13:37.000Z</time>
      </trkpt>
      <trkpt lat="37.5425" lon="71.5063">
        <ele>2095.3</ele>
        <time>2018-08-24T06:14:37.000Z</time>
      </trkpt>
      <trkpt lat="37.54116" lon="71.50573">
        <ele>2097.6</ele>
        <time>2018-08-24T06:15:38.000Z</time>
      </trkpt>
      <trkpt lat="37.53969" lon="71.50556">
        <ele>2099.5</ele>
        <time>2018-08-24T06:16:39.000Z</time>
      </trkpt>
      <trkpt lat="37.52562" lon="71.50614">
        <ele>2090.1</ele>
        <time>2018-08-24T06:22:54.000Z</time>
      </trkpt>
      <trkpt lat="37.52279" lon="71.50619">
        <ele>2089.6</ele>
        <time>2018-08-24T06:23:55.000Z</time>
      </trkpt>
      <trkpt lat="37.51972" lon="71.50674">
        <ele>2090.4</ele>
        <time>2018-08-24T06:24:56.000Z</time>
      </trkpt>
      <trkpt lat="37.51701" lon="71.50806">
        <ele>2091.7</ele>
        <time>2018-08-24T06:25:57.000Z</time>
      </trkpt>
      <trkpt lat="37.51452" lon="71.509">
        <ele>2094.1</ele>
        <time>2018-08-24T06:26:58.000Z</time>
      </trkpt>
      <trkpt lat="37.5126" lon="71.5093">
        <ele>2096</ele>
        <time>2018-08-24T06:27:58.000Z</time>
      </trkpt>
      <trkpt lat="37.50976" lon="71.51132">
        <ele>2097.9</ele>
        <time>2018-08-24T06:28:59.000Z</time>
      </trkpt>
      <trkpt lat="37.5073" lon="71.51277">
        <ele>2099.4</ele>
        <time>2018-08-24T06:30:00.000Z</time>
      </trkpt>
      <trkpt lat="37.50498" lon="71.51373">
        <ele>2100</ele>
        <time>2018-08-24T06:31:01.000Z</time>
      </trkpt>
      <trkpt lat="37.50298" lon="71.51497">
        <ele>2098.7</ele>
        <time>2018-08-24T06:32:02.000Z</time>
      </trkpt>
      <trkpt lat="37.50171" lon="71.5156">
        <ele>2099.3</ele>
        <time>2018-08-24T06:33:21.000Z</time>
      </trkpt>
      <trkpt lat="37.50017" lon="71.51645">
        <ele>2099.9</ele>
        <time>2018-08-24T06:34:22.000Z</time>
      </trkpt>
      <trkpt lat="37.49755" lon="71.51896">
        <ele>2099.3</ele>
        <time>2018-08-24T06:35:23.000Z</time>
      </trkpt>
    </trkseg>
  </trk>
</gpx>